sensor_id;sensor_type;location;lat;lon;timestamp;P1;durP1;ratioP1;P2;durP2;ratioP2
46266;SDS011;31998;48.798;15.066;2023-09-18T00:00:21;2.83;;;2.07;;
46266;SDS011;31998;48.798;15.066;2023-09-18T00:02:47;3.13;;;2.97;;
46266;SDS011;31998;48.798;15.066;2023-09-18T00:05:13;4.17;;;3.77;;
46266;SDS011;31998;48.798;15.066;2023-09-18T00:07:41;18.07;;;3.00;;
46266;SDS011;31998;48.798;15.066;2023-09-18T00:10:08;2.60;;;2.50;;
46266;SDS011;31998;48.798;15.066;2023-09-18T00:12:34;1.97;;;1.97;;
46266;SDS011;31998;48.798;15.066;2023-09-18T00:15:00;4.83;;;2.33;;
46266;SDS011;31998;48.798;15.066;2023-09-18T00:17:26;1.97;;;1.87;;
46266;SDS011;31998;48.798;15.066;2023-09-18T00:19:52;3.17;;;2.97;;
46266;SDS011;31998;48.798;15.066;2023-09-18T00:22:18;3.10;;;3.00;;
46266;SDS011;31998;48.798;15.066;2023-09-18T00:24:43;3.80;;;3.47;;
46266;SDS011;31998;48.798;15.066;2023-09-18T00:27:09;4.80;;;4.40;;
46266;SDS011;31998;48.798;15.066;2023-09-18T00:29:36;4.50;;;4.10;;
46266;SDS011;31998;48.798;15.066;2023-09-18T00:32:01;19.80;;;4.33;;
46266;SDS011;31998;48.798;15.066;2023-09-18T00:34:28;7.00;;;3.30;;
46266;SDS011;31998;48.798;15.066;2023-09-18T00:36:56;2.50;;;2.40;;
46266;SDS011;31998;48.798;15.066;2023-09-18T00:39:22;2.50;;;2.40;;
46266;SDS011;31998;48.798;15.066;2023-09-18T00:41:47;3.00;;;2.77;;
46266;SDS011;31998;48.798;15.066;2023-09-18T00:44:16;2.50;;;2.40;;
46266;SDS011;31998;48.798;15.066;2023-09-18T00:46:41;2.40;;;2.37;;
46266;SDS011;31998;48.798;15.066;2023-09-18T00:49:08;3.80;;;3.60;;
46266;SDS011;31998;48.798;15.066;2023-09-18T00:51:35;5.90;;;3.17;;
46266;SDS011;31998;48.798;15.066;2023-09-18T00:54:00;3.30;;;3.10;;
46266;SDS011;31998;48.798;15.066;2023-09-18T00:56:26;3.30;;;3.03;;
46266;SDS011;31998;48.798;15.066;2023-09-18T00:58:52;3.50;;;3.20;;
46266;SDS011;31998;48.798;15.066;2023-09-18T01:01:18;4.23;;;4.13;;
46266;SDS011;31998;48.798;15.066;2023-09-18T01:03:47;18.63;;;4.03;;
46266;SDS011;31998;48.798;15.066;2023-09-18T01:06:15;4.60;;;4.40;;
46266;SDS011;31998;48.798;15.066;2023-09-18T01:08:41;6.40;;;5.90;;
46266;SDS011;31998;48.798;15.066;2023-09-18T01:16:50;8.67;;;8.07;;
46266;SDS011;31998;48.798;15.066;2023-09-18T01:19:41;6.10;;;5.67;;
46266;SDS011;31998;48.798;15.066;2023-09-18T01:22:11;5.23;;;4.53;;
46266;SDS011;31998;48.798;15.066;2023-09-18T01:24:38;3.10;;;2.87;;
46266;SDS011;31998;48.798;15.066;2023-09-18T01:27:06;5.67;;;5.37;;
46266;SDS011;31998;48.798;15.066;2023-09-18T01:29:35;6.87;;;6.30;;
46266;SDS011;31998;48.798;15.066;2023-09-18T01:32:01;5.87;;;5.47;;
46266;SDS011;31998;48.798;15.066;2023-09-18T01:34:31;7.40;;;6.80;;
46266;SDS011;31998;48.798;15.066;2023-09-18T01:36:59;8.70;;;8.00;;
46266;SDS011;31998;48.798;15.066;2023-09-18T01:39:25;5.20;;;4.90;;
46266;SDS011;31998;48.798;15.066;2023-09-18T01:41:56;4.93;;;4.73;;
46266;SDS011;31998;48.798;15.066;2023-09-18T01:44:23;30.07;;;5.20;;
46266;SDS011;31998;48.798;15.066;2023-09-18T01:46:49;8.97;;;5.70;;
46266;SDS011;31998;48.798;15.066;2023-09-18T01:49:16;5.10;;;4.90;;
46266;SDS011;31998;48.798;15.066;2023-09-18T01:51:51;8.43;;;6.17;;
46266;SDS011;31998;48.798;15.066;2023-09-18T01:54:17;4.00;;;3.70;;
46266;SDS011;31998;48.798;15.066;2023-09-18T01:56:42;4.70;;;4.40;;
46266;SDS011;31998;48.798;15.066;2023-09-18T01:59:08;3.30;;;3.20;;
46266;SDS011;31998;48.798;15.066;2023-09-18T02:01:33;3.20;;;3.10;;
46266;SDS011;31998;48.798;15.066;2023-09-18T02:04:00;5.43;;;2.50;;
46266;SDS011;31998;48.798;15.066;2023-09-18T02:06:25;3.20;;;3.00;;
46266;SDS011;31998;48.798;15.066;2023-09-18T02:08:51;3.50;;;3.37;;
46266;SDS011;31998;48.798;15.066;2023-09-18T02:11:16;5.80;;;3.70;;
46266;SDS011;31998;48.798;15.066;2023-09-18T02:13:41;4.70;;;4.50;;
46266;SDS011;31998;48.798;15.066;2023-09-18T02:16:07;5.60;;;5.10;;
46266;SDS011;31998;48.798;15.066;2023-09-18T02:18:32;5.47;;;5.17;;
46266;SDS011;31998;48.798;15.066;2023-09-18T02:20:58;4.37;;;3.97;;
46266;SDS011;31998;48.798;15.066;2023-09-18T02:23:23;3.40;;;3.10;;
46266;SDS011;31998;48.798;15.066;2023-09-18T02:25:58;5.90;;;3.37;;
46266;SDS011;31998;48.798;15.066;2023-09-18T02:28:24;420.83;;;18.17;;
46266;SDS011;31998;48.798;15.066;2023-09-18T02:30:49;4.30;;;4.00;;
46266;SDS011;31998;48.798;15.066;2023-09-18T02:33:15;6.17;;;5.17;;
46266;SDS011;31998;48.798;15.066;2023-09-18T02:35:40;4.73;;;4.07;;
46266;SDS011;31998;48.798;15.066;2023-09-18T02:38:08;3.53;;;3.23;;
46266;SDS011;31998;48.798;15.066;2023-09-18T02:40:33;3.30;;;3.20;;
46266;SDS011;31998;48.798;15.066;2023-09-18T02:42:59;3.37;;;3.27;;
46266;SDS011;31998;48.798;15.066;2023-09-18T02:45:24;5.70;;;5.40;;
46266;SDS011;31998;48.798;15.066;2023-09-18T02:47:50;5.60;;;4.27;;
46266;SDS011;31998;48.798;15.066;2023-09-18T02:50:15;5.80;;;3.70;;
46266;SDS011;31998;48.798;15.066;2023-09-18T02:52:41;4.27;;;3.97;;
46266;SDS011;31998;48.798;15.066;2023-09-18T02:55:07;4.20;;;3.97;;
46266;SDS011;31998;48.798;15.066;2023-09-18T02:57:35;3.47;;;2.67;;
46266;SDS011;31998;48.798;15.066;2023-09-18T03:00:00;2.37;;;2.27;;
46266;SDS011;31998;48.798;15.066;2023-09-18T03:02:26;2.87;;;2.77;;
46266;SDS011;31998;48.798;15.066;2023-09-18T03:04:51;17.70;;;4.37;;
46266;SDS011;31998;48.798;15.066;2023-09-18T03:07:17;3.80;;;3.13;;
46266;SDS011;31998;48.798;15.066;2023-09-18T03:09:42;76.13;;;6.07;;
46266;SDS011;31998;48.798;15.066;2023-09-18T03:12:08;3.63;;;3.47;;
46266;SDS011;31998;48.798;15.066;2023-09-18T03:14:34;4.10;;;3.80;;
46266;SDS011;31998;48.798;15.066;2023-09-18T03:16:59;5.93;;;5.43;;
46266;SDS011;31998;48.798;15.066;2023-09-18T03:19:25;3.70;;;3.50;;
46266;SDS011;31998;48.798;15.066;2023-09-18T03:21:51;4.20;;;3.90;;
46266;SDS011;31998;48.798;15.066;2023-09-18T03:24:17;1.87;;;1.77;;
46266;SDS011;31998;48.798;15.066;2023-09-18T03:26:43;2.57;;;2.47;;
46266;SDS011;31998;48.798;15.066;2023-09-18T03:29:08;3.10;;;3.00;;
46266;SDS011;31998;48.798;15.066;2023-09-18T03:31:33;3.50;;;3.40;;
46266;SDS011;31998;48.798;15.066;2023-09-18T03:33:59;4.40;;;4.10;;
46266;SDS011;31998;48.798;15.066;2023-09-18T03:36:24;4.40;;;3.57;;
46266;SDS011;31998;48.798;15.066;2023-09-18T03:38:50;2.83;;;2.73;;
46266;SDS011;31998;48.798;15.066;2023-09-18T03:41:15;2.27;;;2.17;;
46266;SDS011;31998;48.798;15.066;2023-09-18T03:43:41;2.60;;;2.50;;
46266;SDS011;31998;48.798;15.066;2023-09-18T03:46:06;3.00;;;2.90;;
46266;SDS011;31998;48.798;15.066;2023-09-18T03:48:32;47.67;;;4.90;;
46266;SDS011;31998;48.798;15.066;2023-09-18T03:51:06;142.57;;;6.53;;
46266;SDS011;31998;48.798;15.066;2023-09-18T03:53:33;169.53;;;8.27;;
46266;SDS011;31998;48.798;15.066;2023-09-18T03:55:58;12.20;;;3.53;;
46266;SDS011;31998;48.798;15.066;2023-09-18T03:58:24;3.90;;;3.70;;
46266;SDS011;31998;48.798;15.066;2023-09-18T04:00:50;213.47;;;9.57;;
46266;SDS011;31998;48.798;15.066;2023-09-18T04:03:16;22.27;;;6.60;;
46266;SDS011;31998;48.798;15.066;2023-09-18T04:05:42;16.93;;;7.77;;
46266;SDS011;31998;48.798;15.066;2023-09-18T04:08:07;271.20;;;17.40;;
46266;SDS011;31998;48.798;15.066;2023-09-18T04:10:33;9.23;;;8.53;;
46266;SDS011;31998;48.798;15.066;2023-09-18T04:12:58;7.23;;;6.63;;
46266;SDS011;31998;48.798;15.066;2023-09-18T04:15:25;262.77;;;16.90;;
46266;SDS011;31998;48.798;15.066;2023-09-18T04:17:52;421.90;;;19.97;;
46266;SDS011;31998;48.798;15.066;2023-09-18T04:20:18;38.30;;;10.60;;
46266;SDS011;31998;48.798;15.066;2023-09-18T04:22:44;564.37;;;29.80;;
46266;SDS011;31998;48.798;15.066;2023-09-18T04:25:14;19.17;;;12.70;;
46266;SDS011;31998;48.798;15.066;2023-09-18T04:27:40;29.70;;;13.80;;
46266;SDS011;31998;48.798;15.066;2023-09-18T04:30:06;35.03;;;15.00;;
46266;SDS011;31998;48.798;15.066;2023-09-18T04:32:34;89.53;;;15.53;;
46266;SDS011;31998;48.798;15.066;2023-09-18T04:35:03;18.20;;;15.93;;
46266;SDS011;31998;48.798;15.066;2023-09-18T04:37:30;43.37;;;14.13;;
46266;SDS011;31998;48.798;15.066;2023-09-18T04:39:57;612.90;;;35.83;;
46266;SDS011;31998;48.798;15.066;2023-09-18T04:42:23;790.13;;;46.67;;
46266;SDS011;31998;48.798;15.066;2023-09-18T04:44:48;43.13;;;16.40;;
46266;SDS011;31998;48.798;15.066;2023-09-18T04:47:14;181.30;;;22.97;;
46266;SDS011;31998;48.798;15.066;2023-09-18T04:49:40;119.03;;;20.53;;
46266;SDS011;31998;48.798;15.066;2023-09-18T04:52:05;25.30;;;19.57;;
46266;SDS011;31998;48.798;15.066;2023-09-18T04:54:31;427.97;;;34.53;;
46266;SDS011;31998;48.798;15.066;2023-09-18T04:56:56;78.30;;;22.60;;
46266;SDS011;31998;48.798;15.066;2023-09-18T04:59:22;264.13;;;26.23;;
46266;SDS011;31998;48.798;15.066;2023-09-18T05:01:48;148.27;;;24.70;;
46266;SDS011;31998;48.798;15.066;2023-09-18T05:04:13;898.83;;;54.37;;
46266;SDS011;31998;48.798;15.066;2023-09-18T05:06:39;336.60;;;28.90;;
46266;SDS011;31998;48.798;15.066;2023-09-18T05:09:05;573.30;;;35.57;;
46266;SDS011;31998;48.798;15.066;2023-09-18T05:11:31;15.20;;;13.70;;
46266;SDS011;31998;48.798;15.066;2023-09-18T05:13:56;17.90;;;13.77;;
46266;SDS011;31998;48.798;15.066;2023-09-18T05:16:25;19.13;;;13.73;;
46266;SDS011;31998;48.798;15.066;2023-09-18T05:18:54;16.17;;;14.67;;
46266;SDS011;31998;48.798;15.066;2023-09-18T05:21:19;21.00;;;15.27;;
46266;SDS011;31998;48.798;15.066;2023-09-18T05:23:49;15.03;;;13.40;;
46266;SDS011;31998;48.798;15.066;2023-09-18T05:26:18;91.30;;;13.73;;
46266;SDS011;31998;48.798;15.066;2023-09-18T05:28:49;14.23;;;11.03;;
46266;SDS011;31998;48.798;15.066;2023-09-18T05:31:16;12.47;;;11.47;;
46266;SDS011;31998;48.798;15.066;2023-09-18T05:33:42;14.70;;;13.20;;
46266;SDS011;31998;48.798;15.066;2023-09-18T05:36:07;20.73;;;17.03;;
46266;SDS011;31998;48.798;15.066;2023-09-18T05:38:33;23.23;;;20.43;;
46266;SDS011;31998;48.798;15.066;2023-09-18T05:40:58;26.30;;;22.73;;
46266;SDS011;31998;48.798;15.066;2023-09-18T05:43:25;30.67;;;24.70;;
46266;SDS011;31998;48.798;15.066;2023-09-18T05:45:50;33.60;;;26.27;;
46266;SDS011;31998;48.798;15.066;2023-09-18T05:48:16;30.83;;;24.37;;
46266;SDS011;31998;48.798;15.066;2023-09-18T05:50:42;28.93;;;25.37;;
46266;SDS011;31998;48.798;15.066;2023-09-18T05:53:08;29.43;;;23.73;;
46266;SDS011;31998;48.798;15.066;2023-09-18T05:55:34;29.70;;;25.30;;
46266;SDS011;31998;48.798;15.066;2023-09-18T05:58:00;26.03;;;22.50;;
46266;SDS011;31998;48.798;15.066;2023-09-18T06:00:26;28.87;;;21.83;;
46266;SDS011;31998;48.798;15.066;2023-09-18T06:02:51;21.70;;;19.47;;
46266;SDS011;31998;48.798;15.066;2023-09-18T06:05:17;21.67;;;18.83;;
46266;SDS011;31998;48.798;15.066;2023-09-18T06:07:46;21.90;;;19.30;;
46266;SDS011;31998;48.798;15.066;2023-09-18T06:10:13;22.40;;;20.10;;
46266;SDS011;31998;48.798;15.066;2023-09-18T06:12:39;20.67;;;18.57;;
46266;SDS011;31998;48.798;15.066;2023-09-18T06:15:06;23.40;;;20.87;;
46266;SDS011;31998;48.798;15.066;2023-09-18T06:17:35;24.47;;;21.87;;
46266;SDS011;31998;48.798;15.066;2023-09-18T06:20:02;26.57;;;22.20;;
46266;SDS011;31998;48.798;15.066;2023-09-18T06:22:29;28.43;;;24.97;;
46266;SDS011;31998;48.798;15.066;2023-09-18T06:24:54;35.23;;;26.17;;
46266;SDS011;31998;48.798;15.066;2023-09-18T06:27:19;37.07;;;27.73;;
46266;SDS011;31998;48.798;15.066;2023-09-18T06:29:45;35.73;;;27.60;;
46266;SDS011;31998;48.798;15.066;2023-09-18T06:32:10;38.27;;;30.00;;
46266;SDS011;31998;48.798;15.066;2023-09-18T06:34:37;36.30;;;30.50;;
46266;SDS011;31998;48.798;15.066;2023-09-18T06:37:03;41.50;;;32.23;;
46266;SDS011;31998;48.798;15.066;2023-09-18T06:39:29;43.73;;;32.00;;
46266;SDS011;31998;48.798;15.066;2023-09-18T06:41:55;38.50;;;31.33;;
46266;SDS011;31998;48.798;15.066;2023-09-18T06:44:21;42.70;;;33.33;;
46266;SDS011;31998;48.798;15.066;2023-09-18T06:46:48;42.47;;;32.00;;
46266;SDS011;31998;48.798;15.066;2023-09-18T06:49:14;44.37;;;32.90;;
46266;SDS011;31998;48.798;15.066;2023-09-18T06:51:40;45.83;;;33.87;;
46266;SDS011;31998;48.798;15.066;2023-09-18T06:54:06;51.20;;;35.00;;
46266;SDS011;31998;48.798;15.066;2023-09-18T06:56:31;45.63;;;35.80;;
46266;SDS011;31998;48.798;15.066;2023-09-18T06:58:57;46.40;;;36.70;;
46266;SDS011;31998;48.798;15.066;2023-09-18T07:01:22;42.43;;;35.97;;
46266;SDS011;31998;48.798;15.066;2023-09-18T07:03:49;48.00;;;35.10;;
46266;SDS011;31998;48.798;15.066;2023-09-18T07:06:15;43.20;;;34.70;;
46266;SDS011;31998;48.798;15.066;2023-09-18T07:08:44;49.57;;;36.87;;
46266;SDS011;31998;48.798;15.066;2023-09-18T07:11:09;47.67;;;35.80;;
46266;SDS011;31998;48.798;15.066;2023-09-18T07:13:36;50.97;;;34.97;;
46266;SDS011;31998;48.798;15.066;2023-09-18T07:16:02;43.10;;;33.57;;
46266;SDS011;31998;48.798;15.066;2023-09-18T07:18:28;47.93;;;33.90;;
46266;SDS011;31998;48.798;15.066;2023-09-18T07:20:53;38.80;;;32.87;;
46266;SDS011;31998;48.798;15.066;2023-09-18T07:23:19;35.07;;;31.03;;
46266;SDS011;31998;48.798;15.066;2023-09-18T07:25:47;38.50;;;30.07;;
46266;SDS011;31998;48.798;15.066;2023-09-18T07:28:13;34.07;;;29.83;;
46266;SDS011;31998;48.798;15.066;2023-09-18T07:30:42;35.73;;;31.53;;
46266;SDS011;31998;48.798;15.066;2023-09-18T07:33:09;31.80;;;28.43;;
46266;SDS011;31998;48.798;15.066;2023-09-18T07:35:35;35.67;;;28.10;;
46266;SDS011;31998;48.798;15.066;2023-09-18T07:38:00;35.10;;;29.00;;
46266;SDS011;31998;48.798;15.066;2023-09-18T07:40:26;29.50;;;26.40;;
46266;SDS011;31998;48.798;15.066;2023-09-18T07:42:52;27.40;;;24.50;;
46266;SDS011;31998;48.798;15.066;2023-09-18T07:45:18;28.80;;;25.80;;
46266;SDS011;31998;48.798;15.066;2023-09-18T07:47:43;29.33;;;26.43;;
46266;SDS011;31998;48.798;15.066;2023-09-18T07:50:09;25.60;;;23.10;;
46266;SDS011;31998;48.798;15.066;2023-09-18T07:52:35;26.00;;;23.30;;
46266;SDS011;31998;48.798;15.066;2023-09-18T07:55:01;38.73;;;23.40;;
46266;SDS011;31998;48.798;15.066;2023-09-18T07:57:27;23.47;;;21.03;;
46266;SDS011;31998;48.798;15.066;2023-09-18T07:59:56;24.43;;;22.13;;
46266;SDS011;31998;48.798;15.066;2023-09-18T08:02:23;22.60;;;20.20;;
46266;SDS011;31998;48.798;15.066;2023-09-18T08:04:50;22.63;;;20.23;;
46266;SDS011;31998;48.798;15.066;2023-09-18T08:07:18;27.50;;;20.10;;
46266;SDS011;31998;48.798;15.066;2023-09-18T08:09:44;20.87;;;18.70;;
46266;SDS011;31998;48.798;15.066;2023-09-18T08:12:12;23.73;;;21.07;;
46266;SDS011;31998;48.798;15.066;2023-09-18T08:14:39;20.07;;;18.17;;
46266;SDS011;31998;48.798;15.066;2023-09-18T08:17:04;21.90;;;19.77;;
46266;SDS011;31998;48.798;15.066;2023-09-18T08:19:30;21.40;;;19.40;;
46266;SDS011;31998;48.798;15.066;2023-09-18T08:21:58;18.53;;;16.83;;
46266;SDS011;31998;48.798;15.066;2023-09-18T08:24:25;23.20;;;18.80;;
46266;SDS011;31998;48.798;15.066;2023-09-18T08:26:52;17.93;;;16.27;;
46266;SDS011;31998;48.798;15.066;2023-09-18T08:29:24;19.90;;;18.10;;
46266;SDS011;31998;48.798;15.066;2023-09-18T08:31:49;17.33;;;15.83;;
46266;SDS011;31998;48.798;15.066;2023-09-18T08:34:15;19.67;;;17.87;;
46266;SDS011;31998;48.798;15.066;2023-09-18T08:36:41;17.47;;;15.83;;
46266;SDS011;31998;48.798;15.066;2023-09-18T08:39:08;18.60;;;17.00;;
46266;SDS011;31998;48.798;15.066;2023-09-18T08:41:36;18.00;;;16.17;;
46266;SDS011;31998;48.798;15.066;2023-09-18T08:44:07;20.07;;;18.13;;
46266;SDS011;31998;48.798;15.066;2023-09-18T08:46:34;18.73;;;16.23;;
46266;SDS011;31998;48.798;15.066;2023-09-18T08:49:00;18.30;;;16.70;;
46266;SDS011;31998;48.798;15.066;2023-09-18T08:51:27;18.10;;;16.30;;
46266;SDS011;31998;48.798;15.066;2023-09-18T08:53:54;17.00;;;15.60;;
46266;SDS011;31998;48.798;15.066;2023-09-18T08:56:22;16.23;;;14.73;;
46266;SDS011;31998;48.798;15.066;2023-09-18T08:58:49;15.70;;;14.30;;
46266;SDS011;31998;48.798;15.066;2023-09-18T09:01:15;16.83;;;15.33;;
46266;SDS011;31998;48.798;15.066;2023-09-18T09:03:41;15.30;;;14.00;;
46266;SDS011;31998;48.798;15.066;2023-09-18T09:06:10;16.13;;;14.57;;
46266;SDS011;31998;48.798;15.066;2023-09-18T09:08:36;17.83;;;16.20;;
46266;SDS011;31998;48.798;15.066;2023-09-18T09:11:04;17.87;;;16.33;;
46266;SDS011;31998;48.798;15.066;2023-09-18T09:13:31;17.27;;;15.67;;
46266;SDS011;31998;48.798;15.066;2023-09-18T09:15:57;18.63;;;16.63;;
46266;SDS011;31998;48.798;15.066;2023-09-18T09:18:26;19.80;;;18.10;;
46266;SDS011;31998;48.798;15.066;2023-09-18T09:21:00;18.33;;;16.73;;
46266;SDS011;31998;48.798;15.066;2023-09-18T09:26:18;16.30;;;14.97;;
46266;SDS011;31998;48.798;15.066;2023-09-18T09:28:45;17.47;;;15.03;;
46266;SDS011;31998;48.798;15.066;2023-09-18T09:31:23;16.80;;;15.50;;
46266;SDS011;31998;48.798;15.066;2023-09-18T09:33:51;17.70;;;16.00;;
46266;SDS011;31998;48.798;15.066;2023-09-18T09:36:27;16.87;;;15.40;;
46266;SDS011;31998;48.798;15.066;2023-09-18T09:38:55;15.93;;;14.63;;
46266;SDS011;31998;48.798;15.066;2023-09-18T09:41:23;17.87;;;14.97;;
46266;SDS011;31998;48.798;15.066;2023-09-18T09:43:48;16.70;;;14.50;;
46266;SDS011;31998;48.798;15.066;2023-09-18T09:46:17;15.27;;;14.03;;
46266;SDS011;31998;48.798;15.066;2023-09-18T09:49:04;14.37;;;13.27;;
46266;SDS011;31998;48.798;15.066;2023-09-18T09:51:30;16.57;;;14.90;;
46266;SDS011;31998;48.798;15.066;2023-09-18T09:53:56;14.13;;;13.03;;
46266;SDS011;31998;48.798;15.066;2023-09-18T09:56:39;14.60;;;13.30;;
46266;SDS011;31998;48.798;15.066;2023-09-18T09:59:10;14.07;;;12.60;;
46266;SDS011;31998;48.798;15.066;2023-09-18T10:01:38;13.83;;;12.43;;
46266;SDS011;31998;48.798;15.066;2023-09-18T10:04:14;14.10;;;12.67;;
46266;SDS011;31998;48.798;15.066;2023-09-18T10:06:45;13.50;;;12.13;;
46266;SDS011;31998;48.798;15.066;2023-09-18T10:09:17;13.97;;;12.63;;
46266;SDS011;31998;48.798;15.066;2023-09-18T10:11:46;13.47;;;12.27;;
46266;SDS011;31998;48.798;15.066;2023-09-18T10:14:17;13.20;;;12.10;;
46266;SDS011;31998;48.798;15.066;2023-09-18T10:16:51;13.23;;;12.13;;
46266;SDS011;31998;48.798;15.066;2023-09-18T10:22:02;12.53;;;11.50;;
46266;SDS011;31998;48.798;15.066;2023-09-18T10:24:43;13.10;;;11.27;;
46266;SDS011;31998;48.798;15.066;2023-09-18T10:27:14;10.87;;;9.97;;
46266;SDS011;31998;48.798;15.066;2023-09-18T10:29:45;13.50;;;12.27;;
46266;SDS011;31998;48.798;15.066;2023-09-18T10:32:17;12.97;;;11.87;;
46266;SDS011;31998;48.798;15.066;2023-09-18T10:34:45;12.50;;;10.50;;
46266;SDS011;31998;48.798;15.066;2023-09-18T10:37:15;11.50;;;10.53;;
46266;SDS011;31998;48.798;15.066;2023-09-18T10:39:41;11.00;;;10.03;;
46266;SDS011;31998;48.798;15.066;2023-09-18T10:42:09;12.07;;;11.07;;
46266;SDS011;31998;48.798;15.066;2023-09-18T10:44:37;10.47;;;9.43;;
46266;SDS011;31998;48.798;15.066;2023-09-18T10:47:06;10.30;;;9.50;;
46266;SDS011;31998;48.798;15.066;2023-09-18T10:49:38;10.97;;;9.40;;
46266;SDS011;31998;48.798;15.066;2023-09-18T10:52:04;12.93;;;9.40;;
46266;SDS011;31998;48.798;15.066;2023-09-18T10:54:30;10.63;;;9.57;;
46266;SDS011;31998;48.798;15.066;2023-09-18T10:56:57;10.07;;;9.37;;
46266;SDS011;31998;48.798;15.066;2023-09-18T10:59:23;9.50;;;8.87;;
46266;SDS011;31998;48.798;15.066;2023-09-18T11:01:49;10.37;;;9.27;;
46266;SDS011;31998;48.798;15.066;2023-09-18T11:04:19;11.90;;;9.30;;
46266;SDS011;31998;48.798;15.066;2023-09-18T11:09:24;9.60;;;8.80;;
46266;SDS011;31998;48.798;15.066;2023-09-18T11:14:42;8.40;;;7.70;;
46266;SDS011;31998;48.798;15.066;2023-09-18T11:28:12;8.17;;;7.57;;
46266;SDS011;31998;48.798;15.066;2023-09-18T11:30:48;11.80;;;7.37;;
46266;SDS011;31998;48.798;15.066;2023-09-18T11:33:36;8.77;;;7.97;;
46266;SDS011;31998;48.798;15.066;2023-09-18T11:36:04;8.20;;;6.03;;
46266;SDS011;31998;48.798;15.066;2023-09-18T11:38:35;9.03;;;7.23;;
46266;SDS011;31998;48.798;15.066;2023-09-18T11:41:22;7.07;;;6.50;;
46266;SDS011;31998;48.798;15.066;2023-09-18T11:43:51;8.77;;;7.00;;
46266;SDS011;31998;48.798;15.066;2023-09-18T11:46:19;7.60;;;6.90;;
46266;SDS011;31998;48.798;15.066;2023-09-18T11:48:48;11.07;;;6.53;;
46266;SDS011;31998;48.798;15.066;2023-09-18T11:51:21;8.23;;;7.50;;
46266;SDS011;31998;48.798;15.066;2023-09-18T11:53:54;7.43;;;7.00;;
46266;SDS011;31998;48.798;15.066;2023-09-18T11:56:21;6.43;;;5.77;;
46266;SDS011;31998;48.798;15.066;2023-09-18T11:58:49;6.80;;;6.40;;
46266;SDS011;31998;48.798;15.066;2023-09-18T12:01:17;6.30;;;6.00;;
46266;SDS011;31998;48.798;15.066;2023-09-18T12:03:44;6.30;;;5.90;;
46266;SDS011;31998;48.798;15.066;2023-09-18T12:06:11;6.20;;;5.83;;
46266;SDS011;31998;48.798;15.066;2023-09-18T12:08:41;6.93;;;6.00;;
46266;SDS011;31998;48.798;15.066;2023-09-18T12:11:07;5.83;;;5.53;;
46266;SDS011;31998;48.798;15.066;2023-09-18T12:13:34;19.10;;;6.63;;
46266;SDS011;31998;48.798;15.066;2023-09-18T12:16:00;5.97;;;5.67;;
46266;SDS011;31998;48.798;15.066;2023-09-18T12:18:31;6.43;;;6.03;;
46266;SDS011;31998;48.798;15.066;2023-09-18T12:21:01;5.57;;;5.07;;
46266;SDS011;31998;48.798;15.066;2023-09-18T12:23:38;8.67;;;5.20;;
46266;SDS011;31998;48.798;15.066;2023-09-18T12:26:04;6.20;;;5.80;;
46266;SDS011;31998;48.798;15.066;2023-09-18T12:28:32;7.10;;;6.63;;
46266;SDS011;31998;48.798;15.066;2023-09-18T12:30:59;11.10;;;5.20;;
46266;SDS011;31998;48.798;15.066;2023-09-18T12:33:29;6.13;;;5.20;;
46266;SDS011;31998;48.798;15.066;2023-09-18T12:35:58;7.03;;;5.13;;
46266;SDS011;31998;48.798;15.066;2023-09-18T12:38:23;5.60;;;4.30;;
46266;SDS011;31998;48.798;15.066;2023-09-18T12:40:52;4.87;;;4.57;;
46266;SDS011;31998;48.798;15.066;2023-09-18T12:43:18;5.67;;;5.13;;
46266;SDS011;31998;48.798;15.066;2023-09-18T12:45:48;4.67;;;4.23;;
46266;SDS011;31998;48.798;15.066;2023-09-18T12:48:15;5.83;;;3.90;;
46266;SDS011;31998;48.798;15.066;2023-09-18T12:50:41;10.13;;;4.67;;
46266;SDS011;31998;48.798;15.066;2023-09-18T12:55:37;7.20;;;4.63;;
46266;SDS011;31998;48.798;15.066;2023-09-18T12:58:03;8.10;;;4.47;;
46266;SDS011;31998;48.798;15.066;2023-09-18T13:00:35;5.90;;;3.80;;
46266;SDS011;31998;48.798;15.066;2023-09-18T13:03:02;4.63;;;4.23;;
46266;SDS011;31998;48.798;15.066;2023-09-18T13:05:29;4.50;;;3.97;;
46266;SDS011;31998;48.798;15.066;2023-09-18T13:08:03;5.23;;;4.50;;
46266;SDS011;31998;48.798;15.066;2023-09-18T13:10:43;4.73;;;4.17;;
46266;SDS011;31998;48.798;15.066;2023-09-18T13:13:16;6.60;;;4.10;;
46266;SDS011;31998;48.798;15.066;2023-09-18T13:15:46;4.07;;;3.77;;
46266;SDS011;31998;48.798;15.066;2023-09-18T13:18:15;4.30;;;4.00;;
46266;SDS011;31998;48.798;15.066;2023-09-18T13:20:41;7.53;;;4.30;;
46266;SDS011;31998;48.798;15.066;2023-09-18T13:23:08;9.70;;;4.30;;
46266;SDS011;31998;48.798;15.066;2023-09-18T13:28:03;4.57;;;3.80;;
46266;SDS011;31998;48.798;15.066;2023-09-18T13:30:31;7.47;;;4.00;;
46266;SDS011;31998;48.798;15.066;2023-09-18T13:33:08;7.00;;;3.77;;
46266;SDS011;31998;48.798;15.066;2023-09-18T13:35:39;9.40;;;4.70;;
46266;SDS011;31998;48.798;15.066;2023-09-18T13:38:07;5.70;;;3.63;;
46266;SDS011;31998;48.798;15.066;2023-09-18T13:40:35;5.97;;;3.73;;
46266;SDS011;31998;48.798;15.066;2023-09-18T13:43:01;15.13;;;4.40;;
46266;SDS011;31998;48.798;15.066;2023-09-18T13:45:29;5.07;;;3.57;;
46266;SDS011;31998;48.798;15.066;2023-09-18T13:47:55;4.00;;;3.70;;
46266;SDS011;31998;48.798;15.066;2023-09-18T13:50:20;10.53;;;3.60;;
46266;SDS011;31998;48.798;15.066;2023-09-18T13:52:46;6.33;;;4.00;;
46266;SDS011;31998;48.798;15.066;2023-09-18T13:55:11;5.30;;;4.90;;
46266;SDS011;31998;48.798;15.066;2023-09-18T13:57:37;9.13;;;3.70;;
46266;SDS011;31998;48.798;15.066;2023-09-18T14:00:05;7.40;;;3.73;;
46266;SDS011;31998;48.798;15.066;2023-09-18T14:02:32;3.80;;;3.70;;
46266;SDS011;31998;48.798;15.066;2023-09-18T14:04:58;5.83;;;3.60;;
46266;SDS011;31998;48.798;15.066;2023-09-18T14:07:24;3.80;;;3.50;;
46266;SDS011;31998;48.798;15.066;2023-09-18T14:09:49;4.73;;;4.00;;
46266;SDS011;31998;48.798;15.066;2023-09-18T14:12:15;5.10;;;3.90;;
46266;SDS011;31998;48.798;15.066;2023-09-18T14:14:42;8.03;;;4.00;;
46266;SDS011;31998;48.798;15.066;2023-09-18T14:17:10;4.73;;;4.33;;
46266;SDS011;31998;48.798;15.066;2023-09-18T14:19:36;3.90;;;3.60;;
46266;SDS011;31998;48.798;15.066;2023-09-18T14:22:08;4.03;;;3.60;;
46266;SDS011;31998;48.798;15.066;2023-09-18T14:24:51;4.00;;;3.63;;
46266;SDS011;31998;48.798;15.066;2023-09-18T14:27:16;4.77;;;3.40;;
46266;SDS011;31998;48.798;15.066;2023-09-18T14:29:46;10.63;;;3.90;;
46266;SDS011;31998;48.798;15.066;2023-09-18T14:32:11;10.33;;;3.60;;
46266;SDS011;31998;48.798;15.066;2023-09-18T14:34:37;7.97;;;3.40;;
46266;SDS011;31998;48.798;15.066;2023-09-18T14:37:03;3.87;;;3.33;;
46266;SDS011;31998;48.798;15.066;2023-09-18T14:39:30;3.53;;;3.10;;
46266;SDS011;31998;48.798;15.066;2023-09-18T14:41:58;3.13;;;2.90;;
46266;SDS011;31998;48.798;15.066;2023-09-18T14:44:27;31.47;;;5.20;;
46266;SDS011;31998;48.798;15.066;2023-09-18T14:46:53;3.83;;;3.63;;
46266;SDS011;31998;48.798;15.066;2023-09-18T14:49:19;6.43;;;3.50;;
46266;SDS011;31998;48.798;15.066;2023-09-18T14:51:45;3.60;;;3.30;;
46266;SDS011;31998;48.798;15.066;2023-09-18T14:54:10;3.70;;;3.50;;